Latest Weather Observations for Nambour

IDQ60901

Issued at 3:55 pm EST Thursday 17 April 2014 (issued every 10 minutes, with the page automatically refreshed every 10 minutes)

About weather observations | Map of Brisbane area stations | Latest observations for Brisbane area | Other Formats
Station Details ID: 040988 Name: NAMBOUR DPI - HILLSIDE Lat: -26.64 Lon: 152.94 Height: 53.24 m
Data from the previous 72 hours. | See also: Recent months at Nambour
Date/Time
EST
Tmp

°C
App
Tmp
°C
Dew
Point
°C
Rel
Hum
%
Delta-T

°C
Wind Press
QNH
hPa
Press
MSL
hPa
Rain
since
9 am
mm
Dir
 
Spd
km/h
Gust
km/h
Spd
kts
Gust
kts
17/03:30pm 23.4 23.7 14.9 59 5.1 E 7 11 4 6 1015.2 - 0.0
17/03:00pm 23.9 23.8 14.9 57 5.4 E 9 13 5 7 1015.0 1014.8 0.0
17/02:30pm 24.8 23.8 14.6 53 6.1 NE 13 19 7 10 1015.0 - 0.0
17/02:00pm 25.5 25.4 14.9 52 6.4 NE 9 15 5 8 1015.1 1014.9 0.0
17/01:30pm 24.9 25.4 15.5 56 5.7 E 7 11 4 6 1015.3 - 0.0
17/01:00pm 25.5 26.0 14.0 49 6.8 SSE 4 7 2 4 1015.5 1015.3 0.0
17/12:30pm 26.1 26.3 13.2 44 7.6 NNE 4 7 2 4 1015.8 - 0.0
17/12:00pm 26.4 27.0 14.2 47 7.3 N 4 7 2 4 1016.4 1016.2 0.0
17/11:30am 25.8 26.8 14.3 49 6.9 NNW 2 7 1 4 1017.0 - 0.0
17/11:00am 25.1 26.3 14.9 53 6.1 NW 2 7 1 4 1017.5 1017.3 0.0
17/10:30am 25.1 25.3 14.3 51 6.4 E 6 11 3 6 1017.9 - 0.0
17/10:00am 24.6 24.8 14.1 52 6.2 NE 6 9 3 5 1018.0 1017.8 0.0
17/09:30am 24.1 24.2 13.9 53 6.0 E 6 7 3 4 1018.2 - 0.0
17/09:00am 23.9 24.5 13.2 51 6.2 ESE 2 7 1 4 1018.4 1018.2 0.0
17/08:30am 22.4 24.4 16.0 67 3.9 CALM 0 0 0 0 1018.3 - 0.0
17/08:00am 20.6 22.5 15.8 74 2.9 CALM 0 0 0 0 1018.2 1018.0 0.0
17/07:30am 18.7 20.7 15.9 84 1.7 CALM 0 0 0 0 1018.0 - 0.0
17/07:00am 16.9 18.7 15.6 92 0.8 CALM 0 0 0 0 1017.6 1017.4 0.0
17/06:30am 15.6 17.2 14.8 95 0.5 CALM 0 0 0 0 1017.4 - 0.0
17/06:00am 15.4 16.9 14.6 95 0.5 CALM 0 0 0 0 1017.1 1016.9 0.0
17/05:30am 15.8 17.4 15.0 95 0.5 CALM 0 0 0 0 1016.9 - 0.0
17/05:00am 16.1 17.9 15.5 96 0.3 CALM 0 0 0 0 1016.9 1016.7 0.0
17/04:30am 16.1 17.9 15.5 96 0.3 CALM 0 2 0 1 1016.6 - 0.0
17/04:00am 16.1 17.9 15.5 96 0.3 CALM 0 0 0 0 1016.5 1016.3 0.0
17/03:30am 15.7 17.4 15.1 96 0.3 CALM 0 0 0 0 1016.3 - 0.0
17/03:00am 15.9 17.6 15.3 96 0.3 CALM 0 0 0 0 1016.2 1016.0 0.0
17/02:30am 15.9 17.6 15.3 96 0.3 CALM 0 0 0 0 1016.2 - 0.0
17/02:00am 16.0 17.7 15.2 95 0.5 CALM 0 0 0 0 1016.2 1016.0 0.0
17/01:30am 16.3 18.2 15.7 96 0.4 CALM 0 0 0 0 1016.5 - 0.0
17/01:00am 16.1 17.8 15.3 95 0.5 CALM 0 0 0 0 1016.6 1016.4 0.0
17/12:30am 16.2 17.9 15.2 94 0.6 CALM 0 0 0 0 1016.7 - 0.0
17/12:00am 16.3 18.0 15.3 94 0.6 S 0 0 0 0 1016.8 1016.6 0.0
 
Date/Time
EST
Tmp

°C
App
Tmp
°C
Dew
Point
°C
Rel
Hum
%
Delta-T

°C
Wind Press
QNH
hPa
Press
MSL
hPa
Rain
since
9 am
mm
Dir
 
Spd
km/h
Gust
km/h
Spd
kts
Gust
kts
16/11:30pm 16.6 18.4 15.6 94 0.6 CALM 0 0 0 0 1016.8 - 0.0
16/11:00pm 16.6 18.4 15.5 93 0.6 CALM 0 0 0 0 1016.9 1016.7 0.0
16/10:30pm 16.7 18.5 15.6 93 0.6 CALM 0 0 0 0 1016.9 - 0.0
16/10:00pm 16.8 18.6 15.5 92 0.8 CALM 0 0 0 0 1017.0 1016.8 0.0
16/09:30pm 17.1 18.9 15.6 91 0.9 CALM 0 0 0 0 1016.9 - 0.0
16/09:00pm 17.4 19.3 15.7 90 1.0 CALM 0 0 0 0 1016.7 1016.5 0.0
16/08:30pm 17.5 19.2 15.1 86 1.4 CALM 0 0 0 0 1016.6 - 0.0
16/08:00pm 17.6 19.2 14.9 84 1.6 CALM 0 0 0 0 1016.3 1016.1 0.0
16/07:30pm 17.9 19.5 15.0 83 1.7 WSW 0 0 0 0 1016.0 - 0.0
16/07:00pm 18.4 20.0 14.9 80 2.0 CALM 0 0 0 0 1015.7 1015.5 0.0
16/06:30pm 18.8 20.5 15.1 79 2.2 CALM 0 0 0 0 1015.4 - 0.0
16/06:00pm 19.7 20.9 14.9 74 2.8 SW 2 4 1 2 1014.9 1014.7 0.0
16/05:30pm 20.6 22.1 14.7 69 3.5 CALM 0 2 0 1 1014.5 - 0.0
16/05:00pm 22.4 23.8 14.5 61 4.7 CALM 0 0 0 0 1014.4 1014.2 0.0
16/04:30pm 23.0 23.6 14.3 58 5.1 NE 4 7 2 4 1014.1 - 0.0
16/04:00pm 22.8 23.5 14.4 59 5.0 E 4 7 2 4 1013.9 1013.7 0.0
16/03:30pm 23.9 23.2 14.3 55 5.7 E 11 19 6 10 1013.7 - 0.0
16/03:00pm 24.1 23.5 13.6 52 6.1 E 9 13 5 7 1013.7 1013.5 0.0
16/02:30pm 25.8 26.3 14.9 51 6.6 NE 6 15 3 8 1013.6 - 0.0
16/02:00pm 26.6 26.7 12.6 42 8.1 N 4 7 2 4 1013.7 1013.5 0.0
16/01:30pm 25.0 25.6 14.2 51 6.4 NNE 4 7 2 4 1014.0 - 0.0
16/01:00pm 25.6 25.0 11.7 42 7.9 E 6 9 3 5 1014.2 1014.0 0.0
16/12:30pm 26.0 26.2 13.2 45 7.5 WSW 4 11 2 6 1014.6 - 0.0
16/12:00pm 25.6 25.2 13.1 46 7.3 SW 7 17 4 9 1015.1 1014.9 0.0
16/11:30am 24.7 24.2 12.6 47 7.0 ESE 7 13 4 7 1015.7 - 0.0
16/11:00am 24.6 24.1 11.9 45 7.2 SSE 6 9 3 5 1016.2 1016.0 0.0
16/10:30am 24.0 23.4 12.3 48 6.7 ESE 7 17 4 9 1016.4 - 0.0
16/10:00am 23.9 23.8 13.2 51 6.2 SW 6 9 3 5 1016.8 1016.6 0.0
16/09:30am 23.3 22.6 11.4 47 6.7 ESE 6 9 3 5 1017.0 - 0.0
16/09:00am 23.3 23.3 12.3 50 6.3 S 4 11 2 6 1017.0 1016.8 0.0
16/08:30am 22.5 22.2 11.6 50 6.1 SSW 4 9 2 5 1016.9 - 0.0
16/08:00am 20.2 21.4 13.9 67 3.6 CALM 0 4 0 2 1016.8 1016.6 0.0
16/07:30am 18.2 19.5 14.1 77 2.4 CALM 0 0 0 0 1016.5 - 0.0
16/07:00am 17.6 17.7 12.7 73 2.7 WSW 4 6 2 3 1016.1 1015.9 0.0
16/06:30am 17.3 16.6 11.3 68 3.3 WSW 6 7 3 4 1015.8 - 0.0
16/06:00am 16.7 16.1 11.6 72 2.8 WSW 6 7 3 4 1015.5 1015.3 0.0
16/05:30am 17.2 16.6 11.7 70 3.0 SW 6 9 3 5 1015.3 - 0.0
16/05:00am 16.6 16.5 12.0 74 2.5 WSW 4 6 2 3 1015.2 1015.0 0.0
16/04:30am 16.7 17.1 12.5 76 2.3 WSW 2 6 1 3 1014.8 - 0.0
16/04:00am 15.3 15.8 12.8 85 1.4 WSW 2 4 1 2 1014.9 1014.7 0.0
16/03:30am 15.3 16.1 12.6 84 1.5 CALM 0 6 0 3 1014.8 - 0.0
16/03:00am 16.9 17.7 12.4 75 2.5 CALM 0 0 0 0 1014.9 1014.7 0.0
16/02:30am 16.6 17.0 12.6 77 2.2 WSW 2 4 1 2 1014.9 - 0.0
16/02:00am 17.9 18.5 13.0 73 2.8 WSW 2 4 1 2 1015.0 1014.8 0.0
16/01:30am 17.5 17.6 12.6 73 2.7 WSW 4 6 2 3 1015.4 - 0.0
16/01:00am 17.3 17.7 12.6 74 2.6 WSW 2 6 1 3 1015.6 1015.4 0.0
16/12:30am 16.8 17.6 12.7 77 2.3 CALM 0 0 0 0 1015.6 - 0.0
16/12:00am 17.8 18.7 12.9 73 2.7 CALM 0 4 0 2 1015.8 1015.6 0.0
 
Date/Time
EST
Tmp

°C
App
Tmp
°C
Dew
Point
°C
Rel
Hum
%
Delta-T

°C
Wind Press
QNH
hPa
Press
MSL
hPa
Rain
since
9 am
mm
Dir
 
Spd
km/h
Gust
km/h
Spd
kts
Gust
kts
15/11:30pm 18.2 19.2 13.3 73 2.8 CALM 0 6 0 3 1016.1 - 0.0
15/11:00pm 18.7 19.1 13.8 73 2.8 SW 4 7 2 4 1016.5 1016.3 0.0
15/10:30pm 18.9 19.2 14.4 75 2.6 WSW 6 9 3 5 1016.4 - 0.0
15/10:00pm 18.6 19.4 14.9 79 2.2 WSW 4 7 2 4 1016.5 1016.3 0.0
15/09:30pm 18.4 20.0 14.9 80 2.0 CALM 0 4 0 2 1016.2 - 0.0
15/09:00pm 18.8 20.4 14.9 78 2.3 CALM 0 4 0 2 1016.1 1015.9 0.0
15/08:30pm 19.1 20.0 15.0 77 2.4 WSW 4 6 2 3 1016.4 - 0.0
15/08:00pm 19.7 21.1 15.4 76 2.5 WSW 2 6 1 3 1016.3 1016.1 0.0
15/07:30pm 19.3 21.1 15.6 79 2.2 CALM 0 4 0 2 1016.0 - 0.0
15/07:00pm 18.9 20.7 15.4 80 2.1 CALM 0 4 0 2 1015.8 1015.6 0.0
15/06:30pm 19.1 20.1 15.4 79 2.2 WSW 4 6 2 3 1015.4 - 0.0
15/06:00pm 19.6 21.3 15.3 76 2.5 CALM 0 0 0 0 1015.1 1014.9 0.0
15/05:30pm 20.5 22.3 15.5 73 3.0 CALM 0 0 0 0 1014.8 - 0.0
15/05:00pm 22.1 23.2 14.5 62 4.5 SSE 2 4 1 2 1014.4 1014.2 0.0
15/04:30pm 22.8 23.6 14.9 61 4.7 SE 4 9 2 5 1014.3 - 0.0
15/04:00pm 23.0 23.6 15.3 62 4.6 SE 6 15 3 8 1014.3 1014.1 0.0
15/03:30pm 22.7 22.8 14.5 60 4.8 SSE 7 15 4 8 1014.2 - 0.0
15/03:00pm 23.3 24.3 15.4 61 4.7 ESE 4 9 2 5 1014.0 1013.8 0.0
15/02:30pm 24.6 25.4 15.8 58 5.3 S 6 17 3 9 1013.8 - 0.0
15/02:00pm 23.5 23.9 14.8 58 5.2 SSE 6 13 3 7 1013.8 1013.6 0.0
15/01:30pm 23.1 23.5 15.2 61 4.7 SE 7 17 4 9 1013.9 - 0.0
15/01:00pm 23.8 24.2 14.8 57 5.4 SE 6 13 3 7 1014.1 1013.9 0.0
15/12:30pm 24.4 23.9 14.8 55 5.7 SE 11 26 6 14 1014.3 - 0.0
15/12:00pm 24.1 23.7 15.1 57 5.4 ESE 11 22 6 12 1014.6 1014.4 0.0
15/11:30am 24.4 23.6 15.1 56 5.6 SE 13 26 7 14 1014.8 - 0.0
15/11:00am 24.0 24.0 15.2 58 5.3 SE 9 20 5 11 1015.1 1014.9 0.0
15/10:30am 24.1 23.7 16.1 61 4.9 ESE 13 26 7 14 1015.3 - 0.0
15/10:00am 23.8 24.3 15.0 57 5.3 SSE 6 19 3 10 1016.1 1015.9 0.0
15/09:30am 23.7 23.7 15.2 59 5.1 SSE 9 20 5 11 1016.1 - 0.0
15/09:00am 23.2 23.6 15.3 61 4.7 SE 7 15 4 8 1016.0 1015.8 3.6
15/08:30am 22.8 23.0 14.6 60 4.9 SE 7 19 4 10 1016.0 - 3.6
15/08:00am 22.2 22.4 14.8 63 4.4 SW 7 20 4 11 1015.9 1015.7 3.6
15/07:30am 21.4 21.4 14.3 64 4.2 WSW 7 19 4 10 1015.6 - 3.6
15/07:00am 20.9 21.1 14.3 66 3.8 SE 6 15 3 8 1015.3 1015.1 3.6
15/06:30am 20.4 21.1 14.5 69 3.4 S 4 9 2 5 1015.0 - 3.6
15/06:00am 20.0 20.3 14.6 71 3.2 SW 6 17 3 9 1014.7 1014.5 3.6
15/05:30am 20.1 20.5 14.7 71 3.2 WSW 6 11 3 6 1014.2 - 3.6
15/05:00am 20.2 20.5 15.0 72 3.1 SW 7 17 4 9 1013.9 1013.7 3.6
15/04:30am 20.1 20.6 15.1 73 2.9 SW 6 15 3 8 1013.6 - 3.6
15/04:00am 20.0 20.7 15.6 76 2.6 NNE 6 11 3 6 1013.5 1013.3 3.6
15/03:30am 20.0 21.1 15.6 76 2.6 NW 4 13 2 7 1013.5 - 3.6
15/03:00am 19.8 20.5 15.7 77 2.4 SW 6 13 3 7 1013.2 1013.0 3.6
15/02:30am 19.9 21.0 15.5 76 2.6 W 4 9 2 5 1013.3 - 3.6
15/02:00am 20.0 20.5 15.6 76 2.6 SSW 7 17 4 9 1013.2 1013.0 3.6
15/01:30am 19.9 21.0 15.5 76 2.6 WSW 4 11 2 6 1013.1 - 3.6
15/01:00am 20.1 20.8 15.7 76 2.6 SSW 6 13 3 7 1013.4 1013.2 3.6
15/12:30am 20.2 21.0 15.8 76 2.6 SW 6 15 3 8 1013.5 - 3.6
15/12:00am 20.3 21.5 15.9 76 2.6 N 4 9 2 5 1013.6 1013.4 3.6
 
Date/Time
EST
Tmp

°C
App
Tmp
°C
Dew
Point
°C
Rel
Hum
%
Delta-T

°C
Wind Press
QNH
hPa
Press
MSL
hPa
Rain
since
9 am
mm
Dir
 
Spd
km/h
Gust
km/h
Spd
kts
Gust
kts
14/11:30pm 20.4 21.3 16.0 76 2.6 SSE 6 17 3 9 1013.7 - 3.6
14/11:00pm 20.5 21.4 16.1 76 2.6 SSE 6 13 3 7 1013.9 1013.7 3.6
14/10:30pm 20.8 22.0 16.0 74 2.9 ESE 4 9 2 5 1014.2 - 3.6
14/10:00pm 20.9 21.8 16.1 74 2.9 NE 6 11 3 6 1014.4 1014.2 3.6
14/09:30pm 20.9 22.3 16.3 75 2.8 NE 4 11 2 6 1014.2 - 3.6
14/09:00pm 20.9 22.3 16.5 76 2.7 SE 4 9 2 5 1014.1 1013.9 3.6
14/08:30pm 21.0 22.5 16.6 76 2.7 SE 4 11 2 6 1013.9 - 3.6
14/08:00pm 21.2 22.4 16.8 76 2.7 SSW 6 15 3 8 1013.8 1013.6 3.6
14/07:30pm 21.7 22.7 16.4 72 3.2 ESE 6 22 3 12 1013.3 - 3.6
14/07:00pm 21.5 22.9 16.5 73 3.0 NE 4 9 2 5 1012.6 1012.4 3.6
14/06:30pm 21.8 22.7 16.5 72 3.2 SSW 7 19 4 10 1012.3 - 3.6
14/06:00pm 21.8 22.6 16.3 71 3.3 SE 7 20 4 11 1011.8 1011.6 3.6
14/05:30pm 22.1 23.1 16.8 72 3.2 ESE 7 13 4 7 1011.3 - 3.6
14/05:00pm 22.5 22.8 17.0 71 3.4 SSE 11 20 6 11 1011.0 1010.8 3.6
14/04:30pm 22.6 24.0 17.7 74 3.0 SE 7 19 4 10 1010.6 - 3.6
14/04:00pm 22.6 23.7 17.9 75 2.9 ESE 9 20 5 11 1010.2 1010.0 3.6

Latest Capital City Observations: Canberra | Sydney | Melbourne | Brisbane | Adelaide | Perth | Hobart | Darwin

Other Formats:

Comma delimited format used in spreadsheet applications
http://www.bom.gov.au/fwo/IDQ60901/IDQ60901.95572.axf

JavaScript Object Notation format (JSON) in row-major order
http://www.bom.gov.au/fwo/IDQ60901/IDQ60901.95572.json